sensor_id;sensor_type;location;lat;lon;timestamp;P1;durP1;ratioP1;P2;durP2;ratioP2
15142;SDS011;7672;50.834;6.286;2022-11-20T00:01:30;25.30;;;15.43;;
15142;SDS011;7672;50.834;6.286;2022-11-20T00:03:57;21.60;;;13.63;;
15142;SDS011;7672;50.834;6.286;2022-11-20T00:06:25;20.63;;;13.50;;
15142;SDS011;7672;50.834;6.286;2022-11-20T00:08:57;21.03;;;14.07;;
15142;SDS011;7672;50.834;6.286;2022-11-20T00:11:29;24.07;;;14.97;;
15142;SDS011;7672;50.834;6.286;2022-11-20T00:13:58;28.73;;;14.63;;
15142;SDS011;7672;50.834;6.286;2022-11-20T00:16:28;23.63;;;14.10;;
15142;SDS011;7672;50.834;6.286;2022-11-20T00:18:57;21.23;;;13.93;;
15142;SDS011;7672;50.834;6.286;2022-11-20T00:21:25;26.83;;;16.10;;
15142;SDS011;7672;50.834;6.286;2022-11-20T00:23:54;25.63;;;15.20;;
15142;SDS011;7672;50.834;6.286;2022-11-20T00:26:23;26.47;;;14.97;;
15142;SDS011;7672;50.834;6.286;2022-11-20T00:28:53;26.30;;;15.00;;
15142;SDS011;7672;50.834;6.286;2022-11-20T00:31:23;24.57;;;15.63;;
15142;SDS011;7672;50.834;6.286;2022-11-20T00:33:50;28.67;;;16.13;;
15142;SDS011;7672;50.834;6.286;2022-11-20T00:36:19;24.80;;;15.87;;
15142;SDS011;7672;50.834;6.286;2022-11-20T00:38:52;28.47;;;16.30;;
15142;SDS011;7672;50.834;6.286;2022-11-20T00:41:21;22.37;;;14.57;;
15142;SDS011;7672;50.834;6.286;2022-11-20T00:43:51;24.73;;;15.87;;
15142;SDS011;7672;50.834;6.286;2022-11-20T00:46:21;24.90;;;15.30;;
15142;SDS011;7672;50.834;6.286;2022-11-20T00:48:50;23.83;;;15.10;;
15142;SDS011;7672;50.834;6.286;2022-11-20T00:51:19;24.47;;;15.17;;
15142;SDS011;7672;50.834;6.286;2022-11-20T00:53:49;23.90;;;15.43;;
15142;SDS011;7672;50.834;6.286;2022-11-20T00:56:24;23.03;;;15.57;;
15142;SDS011;7672;50.834;6.286;2022-11-20T00:58:52;26.37;;;15.73;;
15142;SDS011;7672;50.834;6.286;2022-11-20T01:01:45;24.37;;;14.67;;
15142;SDS011;7672;50.834;6.286;2022-11-20T01:04:13;26.10;;;14.80;;
15142;SDS011;7672;50.834;6.286;2022-11-20T01:06:40;23.13;;;14.83;;
15142;SDS011;7672;50.834;6.286;2022-11-20T01:09:09;22.53;;;14.87;;
15142;SDS011;7672;50.834;6.286;2022-11-20T01:11:40;22.77;;;14.83;;
15142;SDS011;7672;50.834;6.286;2022-11-20T01:14:11;26.33;;;14.40;;
15142;SDS011;7672;50.834;6.286;2022-11-20T01:16:44;27.93;;;15.80;;
15142;SDS011;7672;50.834;6.286;2022-11-20T01:19:18;23.50;;;14.63;;
15142;SDS011;7672;50.834;6.286;2022-11-20T01:21:48;24.90;;;15.40;;
15142;SDS011;7672;50.834;6.286;2022-11-20T01:24:19;26.93;;;14.37;;
15142;SDS011;7672;50.834;6.286;2022-11-20T01:26:48;24.27;;;15.53;;
15142;SDS011;7672;50.834;6.286;2022-11-20T01:29:18;24.67;;;15.40;;
15142;SDS011;7672;50.834;6.286;2022-11-20T01:31:49;24.80;;;15.67;;
15142;SDS011;7672;50.834;6.286;2022-11-20T01:34:19;24.57;;;15.67;;
15142;SDS011;7672;50.834;6.286;2022-11-20T01:36:48;28.67;;;16.37;;
15142;SDS011;7672;50.834;6.286;2022-11-20T01:39:19;25.60;;;15.07;;
15142;SDS011;7672;50.834;6.286;2022-11-20T01:41:50;27.00;;;15.27;;
15142;SDS011;7672;50.834;6.286;2022-11-20T01:44:54;27.27;;;16.30;;
15142;SDS011;7672;50.834;6.286;2022-11-20T01:47:30;27.83;;;15.03;;
15142;SDS011;7672;50.834;6.286;2022-11-20T01:52:52;25.80;;;15.33;;
15142;SDS011;7672;50.834;6.286;2022-11-20T01:55:27;25.70;;;16.13;;
15142;SDS011;7672;50.834;6.286;2022-11-20T01:57:59;24.43;;;15.63;;
15142;SDS011;7672;50.834;6.286;2022-11-20T02:00:27;27.53;;;15.60;;
15142;SDS011;7672;50.834;6.286;2022-11-20T02:02:58;26.23;;;15.07;;
15142;SDS011;7672;50.834;6.286;2022-11-20T02:05:32;24.83;;;15.07;;
15142;SDS011;7672;50.834;6.286;2022-11-20T02:08:15;29.60;;;16.27;;
15142;SDS011;7672;50.834;6.286;2022-11-20T02:10:44;24.30;;;14.53;;
15142;SDS011;7672;50.834;6.286;2022-11-20T02:13:17;23.62;;;14.97;;
15142;SDS011;7672;50.834;6.286;2022-11-20T02:16:03;27.00;;;16.43;;
15142;SDS011;7672;50.834;6.286;2022-11-20T02:18:34;24.97;;;15.03;;
15142;SDS011;7672;50.834;6.286;2022-11-20T02:21:04;25.23;;;14.40;;
15142;SDS011;7672;50.834;6.286;2022-11-20T02:23:51;25.97;;;15.23;;
15142;SDS011;7672;50.834;6.286;2022-11-20T02:26:25;24.60;;;15.47;;
15142;SDS011;7672;50.834;6.286;2022-11-20T02:28:55;26.10;;;15.50;;
15142;SDS011;7672;50.834;6.286;2022-11-20T02:31:25;24.17;;;14.40;;
15142;SDS011;7672;50.834;6.286;2022-11-20T02:33:57;23.87;;;15.23;;
15142;SDS011;7672;50.834;6.286;2022-11-20T02:36:26;21.30;;;13.97;;
15142;SDS011;7672;50.834;6.286;2022-11-20T02:38:56;21.00;;;13.87;;
15142;SDS011;7672;50.834;6.286;2022-11-20T02:41:29;23.87;;;14.63;;
15142;SDS011;7672;50.834;6.286;2022-11-20T02:43:59;25.93;;;15.77;;
15142;SDS011;7672;50.834;6.286;2022-11-20T02:46:26;25.27;;;15.70;;
15142;SDS011;7672;50.834;6.286;2022-11-20T02:48:53;22.60;;;14.77;;
15142;SDS011;7672;50.834;6.286;2022-11-20T02:51:20;26.33;;;14.93;;
15142;SDS011;7672;50.834;6.286;2022-11-20T02:53:47;26.03;;;15.03;;
15142;SDS011;7672;50.834;6.286;2022-11-20T02:56:13;26.57;;;16.13;;
15142;SDS011;7672;50.834;6.286;2022-11-20T02:58:41;26.37;;;16.07;;
15142;SDS011;7672;50.834;6.286;2022-11-20T03:01:08;26.87;;;15.60;;
15142;SDS011;7672;50.834;6.286;2022-11-20T03:03:35;24.77;;;15.03;;
15142;SDS011;7672;50.834;6.286;2022-11-20T03:06:01;26.93;;;15.13;;
15142;SDS011;7672;50.834;6.286;2022-11-20T03:08:29;24.50;;;14.47;;
15142;SDS011;7672;50.834;6.286;2022-11-20T03:10:55;26.43;;;14.73;;
15142;SDS011;7672;50.834;6.286;2022-11-20T03:13:22;25.10;;;14.30;;
15142;SDS011;7672;50.834;6.286;2022-11-20T03:15:50;21.57;;;14.20;;
15142;SDS011;7672;50.834;6.286;2022-11-20T03:18:17;24.43;;;15.07;;
15142;SDS011;7672;50.834;6.286;2022-11-20T03:20:44;23.23;;;14.40;;
15142;SDS011;7672;50.834;6.286;2022-11-20T03:23:11;23.90;;;14.43;;
15142;SDS011;7672;50.834;6.286;2022-11-20T03:25:38;21.73;;;13.93;;
15142;SDS011;7672;50.834;6.286;2022-11-20T03:28:04;23.60;;;14.43;;
15142;SDS011;7672;50.834;6.286;2022-11-20T03:30:31;24.07;;;13.50;;
15142;SDS011;7672;50.834;6.286;2022-11-20T03:32:58;22.10;;;13.17;;
15142;SDS011;7672;50.834;6.286;2022-11-20T03:35:25;26.80;;;14.53;;
15142;SDS011;7672;50.834;6.286;2022-11-20T03:37:52;22.93;;;13.63;;
15142;SDS011;7672;50.834;6.286;2022-11-20T03:40:19;26.37;;;14.20;;
15142;SDS011;7672;50.834;6.286;2022-11-20T03:42:46;26.57;;;16.23;;
15142;SDS011;7672;50.834;6.286;2022-11-20T03:45:15;24.97;;;14.77;;
15142;SDS011;7672;50.834;6.286;2022-11-20T03:47:44;24.23;;;14.43;;
15142;SDS011;7672;50.834;6.286;2022-11-20T03:50:12;30.30;;;15.00;;
15142;SDS011;7672;50.834;6.286;2022-11-20T03:52:40;24.93;;;14.37;;
15142;SDS011;7672;50.834;6.286;2022-11-20T03:55:07;32.93;;;16.53;;
15142;SDS011;7672;50.834;6.286;2022-11-20T03:57:35;27.93;;;16.13;;
15142;SDS011;7672;50.834;6.286;2022-11-20T04:00:02;22.50;;;14.63;;
15142;SDS011;7672;50.834;6.286;2022-11-20T04:02:31;26.20;;;14.63;;
15142;SDS011;7672;50.834;6.286;2022-11-20T04:04:57;23.20;;;15.07;;
15142;SDS011;7672;50.834;6.286;2022-11-20T04:07:24;24.27;;;15.50;;
15142;SDS011;7672;50.834;6.286;2022-11-20T04:09:51;24.63;;;15.00;;
15142;SDS011;7672;50.834;6.286;2022-11-20T04:12:18;27.53;;;15.57;;
15142;SDS011;7672;50.834;6.286;2022-11-20T04:14:44;29.10;;;16.60;;
15142;SDS011;7672;50.834;6.286;2022-11-20T04:17:11;25.27;;;14.33;;
15142;SDS011;7672;50.834;6.286;2022-11-20T04:19:38;26.53;;;15.13;;
15142;SDS011;7672;50.834;6.286;2022-11-20T04:22:05;23.37;;;14.87;;
15142;SDS011;7672;50.834;6.286;2022-11-20T04:24:32;27.50;;;15.53;;
15142;SDS011;7672;50.834;6.286;2022-11-20T04:27:02;26.13;;;14.43;;
15142;SDS011;7672;50.834;6.286;2022-11-20T04:29:29;28.43;;;15.70;;
15142;SDS011;7672;50.834;6.286;2022-11-20T04:31:55;26.40;;;14.97;;
15142;SDS011;7672;50.834;6.286;2022-11-20T04:34:22;26.93;;;16.17;;
15142;SDS011;7672;50.834;6.286;2022-11-20T04:36:49;25.00;;;15.37;;
15142;SDS011;7672;50.834;6.286;2022-11-20T04:39:16;24.53;;;15.90;;
15142;SDS011;7672;50.834;6.286;2022-11-20T04:41:43;24.00;;;14.77;;
15142;SDS011;7672;50.834;6.286;2022-11-20T04:44:10;23.17;;;14.70;;
15142;SDS011;7672;50.834;6.286;2022-11-20T04:46:38;23.93;;;15.83;;
15142;SDS011;7672;50.834;6.286;2022-11-20T04:49:08;21.27;;;14.20;;
15142;SDS011;7672;50.834;6.286;2022-11-20T04:51:37;26.20;;;15.53;;
15142;SDS011;7672;50.834;6.286;2022-11-20T04:54:07;27.63;;;16.53;;
15142;SDS011;7672;50.834;6.286;2022-11-20T04:56:37;24.77;;;16.23;;
15142;SDS011;7672;50.834;6.286;2022-11-20T04:59:04;24.87;;;15.40;;
15142;SDS011;7672;50.834;6.286;2022-11-20T05:01:31;27.20;;;16.80;;
15142;SDS011;7672;50.834;6.286;2022-11-20T05:03:58;24.30;;;16.47;;
15142;SDS011;7672;50.834;6.286;2022-11-20T05:06:28;23.60;;;14.97;;
15142;SDS011;7672;50.834;6.286;2022-11-20T05:08:55;21.20;;;13.20;;
15142;SDS011;7672;50.834;6.286;2022-11-20T05:11:22;22.00;;;15.20;;
15142;SDS011;7672;50.834;6.286;2022-11-20T05:13:49;23.13;;;14.23;;
15142;SDS011;7672;50.834;6.286;2022-11-20T05:16:21;24.63;;;14.43;;
15142;SDS011;7672;50.834;6.286;2022-11-20T05:18:51;23.87;;;15.23;;
15142;SDS011;7672;50.834;6.286;2022-11-20T05:21:23;26.27;;;16.40;;
15142;SDS011;7672;50.834;6.286;2022-11-20T05:23:49;28.90;;;16.03;;
15142;SDS011;7672;50.834;6.286;2022-11-20T05:26:17;26.07;;;15.97;;
15142;SDS011;7672;50.834;6.286;2022-11-20T05:28:50;26.90;;;14.90;;
15142;SDS011;7672;50.834;6.286;2022-11-20T05:31:19;30.63;;;16.47;;
15142;SDS011;7672;50.834;6.286;2022-11-20T05:33:53;26.67;;;15.50;;
15142;SDS011;7672;50.834;6.286;2022-11-20T05:36:23;28.00;;;16.53;;
15142;SDS011;7672;50.834;6.286;2022-11-20T05:38:50;30.50;;;16.80;;
15142;SDS011;7672;50.834;6.286;2022-11-20T05:41:25;27.73;;;15.97;;
15142;SDS011;7672;50.834;6.286;2022-11-20T05:43:52;31.30;;;17.10;;
15142;SDS011;7672;50.834;6.286;2022-11-20T05:46:19;26.47;;;16.60;;
15142;SDS011;7672;50.834;6.286;2022-11-20T05:48:54;29.80;;;16.60;;
15142;SDS011;7672;50.834;6.286;2022-11-20T05:51:23;29.17;;;16.47;;
15142;SDS011;7672;50.834;6.286;2022-11-20T05:53:53;28.30;;;16.00;;
15142;SDS011;7672;50.834;6.286;2022-11-20T05:56:22;37.57;;;17.13;;
15142;SDS011;7672;50.834;6.286;2022-11-20T05:58:49;29.17;;;16.67;;
15142;SDS011;7672;50.834;6.286;2022-11-20T06:01:18;30.27;;;16.93;;
15142;SDS011;7672;50.834;6.286;2022-11-20T06:03:49;29.77;;;17.20;;
15142;SDS011;7672;50.834;6.286;2022-11-20T06:06:17;29.50;;;17.70;;
15142;SDS011;7672;50.834;6.286;2022-11-20T06:08:45;35.33;;;19.40;;
15142;SDS011;7672;50.834;6.286;2022-11-20T06:11:13;29.67;;;18.47;;
15142;SDS011;7672;50.834;6.286;2022-11-20T06:13:41;34.57;;;17.60;;
15142;SDS011;7672;50.834;6.286;2022-11-20T06:16:09;30.97;;;17.93;;
15142;SDS011;7672;50.834;6.286;2022-11-20T06:18:38;34.07;;;17.17;;
15142;SDS011;7672;50.834;6.286;2022-11-20T06:21:09;36.07;;;19.00;;
15142;SDS011;7672;50.834;6.286;2022-11-20T06:23:41;30.23;;;18.67;;
15142;SDS011;7672;50.834;6.286;2022-11-20T06:26:13;28.57;;;16.43;;
15142;SDS011;7672;50.834;6.286;2022-11-20T06:28:52;28.53;;;15.97;;
15142;SDS011;7672;50.834;6.286;2022-11-20T06:31:22;25.97;;;15.10;;
15142;SDS011;7672;50.834;6.286;2022-11-20T06:33:52;28.10;;;16.33;;
15142;SDS011;7672;50.834;6.286;2022-11-20T06:36:20;27.77;;;14.83;;
15142;SDS011;7672;50.834;6.286;2022-11-20T06:38:48;26.90;;;15.00;;
15142;SDS011;7672;50.834;6.286;2022-11-20T06:41:17;27.30;;;15.00;;
15142;SDS011;7672;50.834;6.286;2022-11-20T06:43:46;21.20;;;12.77;;
15142;SDS011;7672;50.834;6.286;2022-11-20T06:46:14;19.23;;;11.83;;
15142;SDS011;7672;50.834;6.286;2022-11-20T06:48:46;14.57;;;10.47;;
15142;SDS011;7672;50.834;6.286;2022-11-20T06:51:14;15.67;;;10.40;;
15142;SDS011;7672;50.834;6.286;2022-11-20T06:53:41;18.17;;;11.30;;
15142;SDS011;7672;50.834;6.286;2022-11-20T06:56:08;12.80;;;9.13;;
15142;SDS011;7672;50.834;6.286;2022-11-20T06:58:35;18.83;;;10.07;;
15142;SDS011;7672;50.834;6.286;2022-11-20T07:01:07;17.13;;;10.37;;
15142;SDS011;7672;50.834;6.286;2022-11-20T07:03:40;16.27;;;10.50;;
15142;SDS011;7672;50.834;6.286;2022-11-20T07:06:09;17.63;;;10.77;;
15142;SDS011;7672;50.834;6.286;2022-11-20T07:08:37;15.93;;;10.80;;
15142;SDS011;7672;50.834;6.286;2022-11-20T07:11:06;14.93;;;10.03;;
15142;SDS011;7672;50.834;6.286;2022-11-20T07:13:34;13.50;;;9.40;;
15142;SDS011;7672;50.834;6.286;2022-11-20T07:16:02;14.40;;;10.23;;
15142;SDS011;7672;50.834;6.286;2022-11-20T07:18:33;16.57;;;10.87;;
15142;SDS011;7672;50.834;6.286;2022-11-20T07:21:07;14.97;;;9.80;;
15142;SDS011;7672;50.834;6.286;2022-11-20T07:23:36;14.37;;;9.23;;
15142;SDS011;7672;50.834;6.286;2022-11-20T07:26:04;13.87;;;9.53;;
15142;SDS011;7672;50.834;6.286;2022-11-20T07:28:34;15.63;;;10.30;;
15142;SDS011;7672;50.834;6.286;2022-11-20T07:31:02;15.60;;;9.90;;
15142;SDS011;7672;50.834;6.286;2022-11-20T07:33:31;14.77;;;10.60;;
15142;SDS011;7672;50.834;6.286;2022-11-20T07:35:59;13.83;;;9.67;;
15142;SDS011;7672;50.834;6.286;2022-11-20T07:38:27;19.60;;;10.90;;
15142;SDS011;7672;50.834;6.286;2022-11-20T07:40:55;19.40;;;11.57;;
15142;SDS011;7672;50.834;6.286;2022-11-20T07:43:27;18.33;;;11.73;;
15142;SDS011;7672;50.834;6.286;2022-11-20T07:45:56;16.73;;;12.20;;
15142;SDS011;7672;50.834;6.286;2022-11-20T07:48:24;19.43;;;11.30;;
15142;SDS011;7672;50.834;6.286;2022-11-20T07:50:55;14.23;;;10.50;;
15142;SDS011;7672;50.834;6.286;2022-11-20T07:53:23;15.00;;;10.33;;
15142;SDS011;7672;50.834;6.286;2022-11-20T07:55:50;16.50;;;10.20;;
15142;SDS011;7672;50.834;6.286;2022-11-20T07:58:19;16.83;;;10.33;;
15142;SDS011;7672;50.834;6.286;2022-11-20T08:00:47;16.97;;;11.33;;
15142;SDS011;7672;50.834;6.286;2022-11-20T08:03:14;19.40;;;12.17;;
15142;SDS011;7672;50.834;6.286;2022-11-20T08:05:49;18.33;;;11.30;;
15142;SDS011;7672;50.834;6.286;2022-11-20T08:08:17;22.27;;;11.87;;
15142;SDS011;7672;50.834;6.286;2022-11-20T08:10:43;19.03;;;11.83;;
15142;SDS011;7672;50.834;6.286;2022-11-20T08:13:13;17.17;;;11.83;;
15142;SDS011;7672;50.834;6.286;2022-11-20T08:15:59;20.70;;;12.13;;
15142;SDS011;7672;50.834;6.286;2022-11-20T08:18:26;17.27;;;10.97;;
15142;SDS011;7672;50.834;6.286;2022-11-20T08:21:00;17.10;;;11.80;;
15142;SDS011;7672;50.834;6.286;2022-11-20T08:23:30;18.10;;;11.93;;
15142;SDS011;7672;50.834;6.286;2022-11-20T08:25:57;18.53;;;12.00;;
15142;SDS011;7672;50.834;6.286;2022-11-20T08:28:24;17.40;;;12.43;;
15142;SDS011;7672;50.834;6.286;2022-11-20T08:30:57;19.93;;;13.37;;
15142;SDS011;7672;50.834;6.286;2022-11-20T08:33:28;21.17;;;12.67;;
15142;SDS011;7672;50.834;6.286;2022-11-20T08:35:59;18.10;;;11.60;;
15142;SDS011;7672;50.834;6.286;2022-11-20T08:38:28;21.83;;;13.87;;
15142;SDS011;7672;50.834;6.286;2022-11-20T08:40:59;23.20;;;13.87;;
15142;SDS011;7672;50.834;6.286;2022-11-20T08:43:46;21.27;;;13.40;;
15142;SDS011;7672;50.834;6.286;2022-11-20T08:46:20;22.73;;;14.43;;
15142;SDS011;7672;50.834;6.286;2022-11-20T08:48:50;19.50;;;13.43;;
15142;SDS011;7672;50.834;6.286;2022-11-20T08:51:19;22.70;;;14.90;;
15142;SDS011;7672;50.834;6.286;2022-11-20T08:53:47;22.23;;;14.37;;
15142;SDS011;7672;50.834;6.286;2022-11-20T08:56:15;20.87;;;13.43;;
15142;SDS011;7672;50.834;6.286;2022-11-20T08:58:43;24.23;;;14.07;;
15142;SDS011;7672;50.834;6.286;2022-11-20T09:01:30;23.40;;;14.80;;
15142;SDS011;7672;50.834;6.286;2022-11-20T09:04:08;19.50;;;12.83;;
15142;SDS011;7672;50.834;6.286;2022-11-20T09:06:34;20.93;;;13.53;;
15142;SDS011;7672;50.834;6.286;2022-11-20T09:09:01;24.07;;;13.97;;
15142;SDS011;7672;50.834;6.286;2022-11-20T09:11:48;21.20;;;14.00;;
15142;SDS011;7672;50.834;6.286;2022-11-20T09:14:16;22.83;;;13.90;;
15142;SDS011;7672;50.834;6.286;2022-11-20T09:16:44;20.37;;;14.17;;
15142;SDS011;7672;50.834;6.286;2022-11-20T09:19:12;25.23;;;14.43;;
15142;SDS011;7672;50.834;6.286;2022-11-20T09:21:59;18.67;;;12.90;;
15142;SDS011;7672;50.834;6.286;2022-11-20T09:24:27;20.63;;;13.67;;
15142;SDS011;7672;50.834;6.286;2022-11-20T09:26:54;22.87;;;14.43;;
15142;SDS011;7672;50.834;6.286;2022-11-20T09:29:23;22.93;;;15.20;;
15142;SDS011;7672;50.834;6.286;2022-11-20T09:32:02;21.83;;;14.17;;
15142;SDS011;7672;50.834;6.286;2022-11-20T09:34:30;25.43;;;15.07;;
15142;SDS011;7672;50.834;6.286;2022-11-20T09:36:58;20.60;;;13.27;;
15142;SDS011;7672;50.834;6.286;2022-11-20T09:39:35;25.67;;;14.53;;
15142;SDS011;7672;50.834;6.286;2022-11-20T09:45:19;23.13;;;14.00;;
15142;SDS011;7672;50.834;6.286;2022-11-20T09:50:52;26.87;;;15.80;;
15142;SDS011;7672;50.834;6.286;2022-11-20T09:56:36;31.90;;;17.13;;
15142;SDS011;7672;50.834;6.286;2022-11-20T09:59:14;27.07;;;16.30;;
15142;SDS011;7672;50.834;6.286;2022-11-20T10:02:15;25.17;;;14.20;;
15142;SDS011;7672;50.834;6.286;2022-11-20T10:13:45;24.33;;;14.60;;
15142;SDS011;7672;50.834;6.286;2022-11-20T10:16:35;26.87;;;15.40;;
15142;SDS011;7672;50.834;6.286;2022-11-20T10:28:48;28.53;;;15.10;;
15142;SDS011;7672;50.834;6.286;2022-11-20T10:31:46;27.97;;;15.93;;
15142;SDS011;7672;50.834;6.286;2022-11-20T10:34:23;27.97;;;16.07;;
15142;SDS011;7672;50.834;6.286;2022-11-20T10:37:17;27.30;;;14.67;;
15142;SDS011;7672;50.834;6.286;2022-11-20T10:39:54;29.17;;;16.93;;
15142;SDS011;7672;50.834;6.286;2022-11-20T10:42:31;28.83;;;16.40;;
15142;SDS011;7672;50.834;6.286;2022-11-20T10:45:16;28.77;;;16.50;;
15142;SDS011;7672;50.834;6.286;2022-11-20T10:48:09;26.30;;;14.90;;
15142;SDS011;7672;50.834;6.286;2022-11-20T10:57:10;27.30;;;16.17;;
15142;SDS011;7672;50.834;6.286;2022-11-20T11:00:14;27.63;;;15.77;;
15142;SDS011;7672;50.834;6.286;2022-11-20T11:02:49;28.30;;;15.77;;
15142;SDS011;7672;50.834;6.286;2022-11-20T11:08:17;27.00;;;15.87;;
15142;SDS011;7672;50.834;6.286;2022-11-20T11:13:31;30.17;;;15.83;;
15142;SDS011;7672;50.834;6.286;2022-11-20T11:16:22;29.00;;;15.97;;
15142;SDS011;7672;50.834;6.286;2022-11-20T11:19:03;30.63;;;15.60;;
15142;SDS011;7672;50.834;6.286;2022-11-20T11:22:02;27.90;;;16.27;;
15142;SDS011;7672;50.834;6.286;2022-11-20T11:24:54;32.20;;;16.60;;
15142;SDS011;7672;50.834;6.286;2022-11-20T11:27:21;38.80;;;20.73;;
15142;SDS011;7672;50.834;6.286;2022-11-20T11:30:11;31.33;;;17.77;;
15142;SDS011;7672;50.834;6.286;2022-11-20T11:32:41;27.43;;;15.83;;
15142;SDS011;7672;50.834;6.286;2022-11-20T11:35:19;24.67;;;15.43;;
15142;SDS011;7672;50.834;6.286;2022-11-20T11:38:01;24.73;;;15.30;;
15142;SDS011;7672;50.834;6.286;2022-11-20T11:40:35;27.27;;;15.70;;
15142;SDS011;7672;50.834;6.286;2022-11-20T11:43:06;26.90;;;15.77;;
15142;SDS011;7672;50.834;6.286;2022-11-20T11:46:53;25.60;;;14.43;;
15142;SDS011;7672;50.834;6.286;2022-11-20T11:54:37;30.10;;;15.47;;
15142;SDS011;7672;50.834;6.286;2022-11-20T12:00:12;24.40;;;15.10;;
15142;SDS011;7672;50.834;6.286;2022-11-20T12:05:46;28.60;;;18.07;;
15142;SDS011;7672;50.834;6.286;2022-11-20T12:11:20;27.97;;;17.17;;
15142;SDS011;7672;50.834;6.286;2022-11-20T12:14:02;29.83;;;16.30;;
15142;SDS011;7672;50.834;6.286;2022-11-20T12:16:40;31.47;;;18.80;;
15142;SDS011;7672;50.834;6.286;2022-11-20T12:19:10;27.07;;;16.40;;
15142;SDS011;7672;50.834;6.286;2022-11-20T12:30:13;27.80;;;16.63;;
15142;SDS011;7672;50.834;6.286;2022-11-20T12:35:40;29.20;;;17.27;;
15142;SDS011;7672;50.834;6.286;2022-11-20T12:41:12;27.77;;;16.70;;
15142;SDS011;7672;50.834;6.286;2022-11-20T12:47:42;25.67;;;15.67;;
15142;SDS011;7672;50.834;6.286;2022-11-20T12:50:37;25.30;;;15.43;;
15142;SDS011;7672;50.834;6.286;2022-11-20T12:53:57;23.87;;;14.77;;
15142;SDS011;7672;50.834;6.286;2022-11-20T13:08:53;17.90;;;13.10;;
15142;SDS011;7672;50.834;6.286;2022-11-20T13:11:27;27.07;;;15.17;;
15142;SDS011;7672;50.834;6.286;2022-11-20T13:16:57;20.97;;;14.00;;
15142;SDS011;7672;50.834;6.286;2022-11-20T13:19:54;24.77;;;15.03;;
15142;SDS011;7672;50.834;6.286;2022-11-20T13:22:28;21.77;;;13.23;;
15142;SDS011;7672;50.834;6.286;2022-11-20T13:25:31;21.17;;;13.20;;
15142;SDS011;7672;50.834;6.286;2022-11-20T13:28:05;21.10;;;12.70;;
15142;SDS011;7672;50.834;6.286;2022-11-20T13:30:55;17.97;;;12.33;;
15142;SDS011;7672;50.834;6.286;2022-11-20T13:33:28;19.63;;;13.00;;
15142;SDS011;7672;50.834;6.286;2022-11-20T13:35:58;22.13;;;13.43;;
15142;SDS011;7672;50.834;6.286;2022-11-20T13:38:52;20.87;;;12.87;;
15142;SDS011;7672;50.834;6.286;2022-11-20T13:41:37;17.97;;;11.10;;
15142;SDS011;7672;50.834;6.286;2022-11-20T13:58:55;5.20;;;2.90;;
15142;SDS011;7672;50.834;6.286;2022-11-20T14:02:13;6.93;;;1.70;;
15142;SDS011;7672;50.834;6.286;2022-11-20T14:04:45;3.63;;;1.63;;
15142;SDS011;7672;50.834;6.286;2022-11-20T14:07:20;4.70;;;2.00;;
15142;SDS011;7672;50.834;6.286;2022-11-20T14:09:54;3.03;;;1.80;;
15142;SDS011;7672;50.834;6.286;2022-11-20T14:12:28;3.10;;;1.40;;
15142;SDS011;7672;50.834;6.286;2022-11-20T14:14:58;3.80;;;1.90;;
15142;SDS011;7672;50.834;6.286;2022-11-20T14:17:31;3.07;;;2.10;;
15142;SDS011;7672;50.834;6.286;2022-11-20T14:20:02;4.43;;;1.60;;
15142;SDS011;7672;50.834;6.286;2022-11-20T14:22:36;3.77;;;2.07;;
15142;SDS011;7672;50.834;6.286;2022-11-20T14:27:42;2.93;;;1.33;;
15142;SDS011;7672;50.834;6.286;2022-11-20T14:30:21;5.10;;;1.83;;
15142;SDS011;7672;50.834;6.286;2022-11-20T14:33:11;3.90;;;2.80;;
15142;SDS011;7672;50.834;6.286;2022-11-20T14:35:52;2.30;;;1.50;;
15142;SDS011;7672;50.834;6.286;2022-11-20T14:38:28;2.50;;;1.80;;
15142;SDS011;7672;50.834;6.286;2022-11-20T14:43:58;4.53;;;1.47;;
15142;SDS011;7672;50.834;6.286;2022-11-20T14:46:28;3.53;;;1.60;;
15142;SDS011;7672;50.834;6.286;2022-11-20T14:49:00;4.57;;;2.13;;
15142;SDS011;7672;50.834;6.286;2022-11-20T14:51:31;3.90;;;2.07;;
15142;SDS011;7672;50.834;6.286;2022-11-20T14:54:15;2.17;;;1.47;;
15142;SDS011;7672;50.834;6.286;2022-11-20T14:56:59;4.07;;;1.80;;
15142;SDS011;7672;50.834;6.286;2022-11-20T14:59:32;2.37;;;2.00;;
15142;SDS011;7672;50.834;6.286;2022-11-20T15:02:05;2.03;;;1.80;;
15142;SDS011;7672;50.834;6.286;2022-11-20T15:04:49;2.07;;;1.77;;
15142;SDS011;7672;50.834;6.286;2022-11-20T15:07:26;2.97;;;1.83;;
15142;SDS011;7672;50.834;6.286;2022-11-20T15:10:02;4.07;;;1.67;;
15142;SDS011;7672;50.834;6.286;2022-11-20T15:12:48;2.73;;;1.93;;
15142;SDS011;7672;50.834;6.286;2022-11-20T15:18:42;1.87;;;1.70;;
15142;SDS011;7672;50.834;6.286;2022-11-20T15:21:13;1.90;;;1.37;;
15142;SDS011;7672;50.834;6.286;2022-11-20T15:23:58;2.33;;;1.57;;
15142;SDS011;7672;50.834;6.286;2022-11-20T15:26:26;2.60;;;1.30;;
15142;SDS011;7672;50.834;6.286;2022-11-20T15:29:10;2.37;;;1.60;;
15142;SDS011;7672;50.834;6.286;2022-11-20T15:34:39;4.57;;;1.93;;
15142;SDS011;7672;50.834;6.286;2022-11-20T15:37:06;2.77;;;1.90;;
15142;SDS011;7672;50.834;6.286;2022-11-20T15:39:33;3.80;;;1.60;;
15142;SDS011;7672;50.834;6.286;2022-11-20T15:42:00;2.73;;;1.90;;
15142;SDS011;7672;50.834;6.286;2022-11-20T15:44:27;2.87;;;1.63;;
15142;SDS011;7672;50.834;6.286;2022-11-20T15:46:54;2.10;;;1.80;;
15142;SDS011;7672;50.834;6.286;2022-11-20T15:49:21;3.53;;;1.70;;
15142;SDS011;7672;50.834;6.286;2022-11-20T15:51:49;6.50;;;2.27;;
15142;SDS011;7672;50.834;6.286;2022-11-20T15:54:19;7.87;;;2.47;;
15142;SDS011;7672;50.834;6.286;2022-11-20T15:56:49;3.53;;;2.20;;
15142;SDS011;7672;50.834;6.286;2022-11-20T15:59:18;2.30;;;1.93;;
15142;SDS011;7672;50.834;6.286;2022-11-20T16:01:45;2.57;;;1.80;;
15142;SDS011;7672;50.834;6.286;2022-11-20T16:04:13;2.30;;;1.90;;
15142;SDS011;7672;50.834;6.286;2022-11-20T16:06:42;3.60;;;2.10;;
15142;SDS011;7672;50.834;6.286;2022-11-20T16:09:09;2.87;;;1.77;;
15142;SDS011;7672;50.834;6.286;2022-11-20T16:11:40;3.57;;;2.80;;
15142;SDS011;7672;50.834;6.286;2022-11-20T16:14:08;3.70;;;2.00;;
15142;SDS011;7672;50.834;6.286;2022-11-20T16:16:55;1.73;;;1.63;;
15142;SDS011;7672;50.834;6.286;2022-11-20T16:19:28;3.38;;;2.15;;
15142;SDS011;7672;50.834;6.286;2022-11-20T16:21:54;2.33;;;1.87;;
15142;SDS011;7672;50.834;6.286;2022-11-20T16:24:28;1.93;;;1.80;;
15142;SDS011;7672;50.834;6.286;2022-11-20T16:26:55;4.07;;;1.77;;
15142;SDS011;7672;50.834;6.286;2022-11-20T16:29:23;3.80;;;1.67;;
15142;SDS011;7672;50.834;6.286;2022-11-20T16:31:50;2.67;;;1.67;;
15142;SDS011;7672;50.834;6.286;2022-11-20T16:34:18;1.90;;;1.70;;
15142;SDS011;7672;50.834;6.286;2022-11-20T16:36:45;1.33;;;1.23;;
15142;SDS011;7672;50.834;6.286;2022-11-20T16:39:12;1.20;;;1.10;;
15142;SDS011;7672;50.834;6.286;2022-11-20T16:41:48;2.17;;;1.60;;
15142;SDS011;7672;50.834;6.286;2022-11-20T16:44:18;12.50;;;1.77;;
15142;SDS011;7672;50.834;6.286;2022-11-20T16:46:47;1.33;;;1.23;;
15142;SDS011;7672;50.834;6.286;2022-11-20T16:49:14;1.23;;;1.13;;
15142;SDS011;7672;50.834;6.286;2022-11-20T16:51:42;1.13;;;1.03;;
15142;SDS011;7672;50.834;6.286;2022-11-20T16:54:09;1.77;;;1.20;;
15142;SDS011;7672;50.834;6.286;2022-11-20T16:56:44;1.27;;;1.17;;
15142;SDS011;7672;50.834;6.286;2022-11-20T16:59:13;1.43;;;1.17;;
15142;SDS011;7672;50.834;6.286;2022-11-20T17:01:40;1.40;;;1.13;;
15142;SDS011;7672;50.834;6.286;2022-11-20T17:04:08;1.20;;;1.10;;
15142;SDS011;7672;50.834;6.286;2022-11-20T17:06:40;1.90;;;1.37;;
15142;SDS011;7672;50.834;6.286;2022-11-20T17:09:13;1.40;;;1.30;;